Time;durP1;ratioP1;P1;durP2;ratioP2;P2;SDS_P1;SDS_P2;PMS_P1;PMS_P2;Temp;Humidity;BMP_temperature;BMP_pressure;BME280_temperature;BME280_humidity;BME280_pressure;Samples;Min_cycle;Max_cycle;Signal;HPM_P1;HPM_P2
2024/01/23 00:03:21;;;;;;;37.03;7.60;;;8.10;99.90;;;;;;10520934;28;20047;-63
2024/01/23 00:08:23;;;;;;;26.83;5.68;;;8.10;99.90;;;;;;10520014;28;20043;-62
2024/01/23 00:13:27;;;;;;;25.75;4.75;;;8.00;99.90;;;;;;10519411;28;20059;-63
2024/01/23 00:18:29;;;;;;;38.33;5.15;;;8.00;99.90;;;;;;10523414;28;20051;-62
2024/01/23 00:23:31;;;;;;;26.45;5.07;;;8.00;99.90;;;;;;10523148;28;20055;-62
2024/01/23 00:28:34;;;;;;;32.58;5.35;;;7.90;99.90;;;;;;10526386;28;20055;-62
2024/01/23 00:33:36;;;;;;;;;;;7.90;99.90;;;;;;10529772;28;20056;-62
2024/01/23 00:38:38;;;;;;;43.42;6.22;;;8.00;99.90;;;;;;10533772;28;19932;-62
2024/01/23 00:43:41;;;;;;;21.90;3.42;;;8.00;99.90;;;;;;10526798;28;20141;-64
2024/01/23 00:48:44;;;;;;;49.28;9.45;;;7.90;99.90;;;;;;10528615;28;20071;-62
2024/01/23 00:53:46;;;;;;;42.45;7.65;;;7.90;99.90;;;;;;10527785;28;20990;-64
2024/01/23 00:58:50;;;;;;;43.25;7.57;;;8.00;99.90;;;;;;10527142;28;20180;-63
2024/01/23 01:03:52;;;;;;;41.38;7.30;;;7.80;99.90;;;;;;10526661;28;20059;-63
2024/01/23 01:08:54;;;;;;;28.05;4.47;;;7.80;99.90;;;;;;10524569;28;20179;-64
2024/01/23 01:13:57;;;;;;;42.45;6.05;;;7.90;99.90;;;;;;10524713;28;20132;-62
2024/01/23 01:18:59;;;;;;;35.95;6.85;;;7.90;99.90;;;;;;10531269;28;20054;-62
2024/01/23 01:24:01;;;;;;;33.83;5.53;;;7.90;99.90;;;;;;10531912;28;20093;-63
2024/01/23 01:29:06;;;;;;;40.72;6.05;;;7.70;99.90;;;;;;10521988;28;20078;-62
2024/01/23 01:34:08;;;;;;;48.63;6.70;;;7.70;99.90;;;;;;10529192;28;20051;-64
2024/01/23 01:39:12;;;;;;;41.35;7.00;;;7.70;99.90;;;;;;10520444;28;20137;-62
2024/01/23 01:44:18;;;;;;;37.05;7.32;;;7.70;99.90;;;;;;10527559;28;20485;-63
2024/01/23 01:49:20;;;;;;;49.20;7.32;;;7.70;99.90;;;;;;10525952;28;20139;-62
2024/01/23 01:54:23;;;;;;;28.00;4.27;;;7.60;99.90;;;;;;10518701;28;20055;-62
2024/01/23 01:59:27;;;;;;;36.80;5.57;;;7.90;99.90;;;;;;10524250;28;20891;-62
2024/01/23 02:04:29;;;;;;;34.65;5.22;;;7.70;99.90;;;;;;10528606;28;20060;-62
2024/01/23 02:09:31;;;;;;;31.60;6.53;;;7.60;99.90;;;;;;10520143;28;20067;-62
2024/01/23 02:14:35;;;;;;;20.20;3.40;;;7.70;99.90;;;;;;10523357;28;20051;-63
2024/01/23 02:19:38;;;;;;;28.38;6.65;;;7.70;99.90;;;;;;10529272;28;20581;-62
2024/01/23 02:24:42;;;;;;;30.90;5.10;;;7.60;99.90;;;;;;10524390;28;20067;-63
2024/01/23 02:29:43;;;;;;;;;;;7.50;99.90;;;;;;10528571;28;20055;-64
2024/01/23 02:34:45;;;;;;;35.10;5.30;;;7.50;99.90;;;;;;10519218;28;20368;-63
2024/01/23 02:39:49;;;;;;;45.10;6.47;;;7.70;99.90;;;;;;10530971;28;20044;-63
2024/01/23 02:44:50;;;;;;;;;;;7.50;99.90;;;;;;10534439;28;20047;-63
2024/01/23 02:49:53;;;;;;;30.63;4.78;;;7.60;99.90;;;;;;10532045;28;19924;-63
2024/01/23 02:54:56;;;;;;;31.30;5.07;;;7.50;99.90;;;;;;10529315;28;20883;-62
2024/01/23 02:59:58;;;;;;;42.00;7.22;;;7.50;99.90;;;;;;10537214;28;20048;-62
2024/01/23 03:05:00;;;;;;;34.10;6.97;;;7.50;99.90;;;;;;10529224;28;20431;-63
2024/01/23 03:10:04;;;;;;;42.20;6.28;;;7.50;99.90;;;;;;10536450;28;20044;-62
2024/01/23 03:15:07;;;;;;;43.85;7.45;;;7.40;99.90;;;;;;10525962;28;20442;-62
2024/01/23 03:20:10;;;;;;;44.92;5.68;;;7.40;99.90;;;;;;10529291;28;20044;-63
2024/01/23 03:25:14;;;;;;;34.17;4.78;;;7.60;99.90;;;;;;10530010;28;23418;-64
2024/01/23 03:30:28;;;;;;;35.33;5.35;;;7.50;99.90;;;;;;10533150;28;20067;-61
2024/01/23 03:35:31;;;;;;;25.48;5.13;;;7.30;99.90;;;;;;10529231;28;20152;-61
2024/01/23 03:40:34;;;;;;;25.40;4.63;;;7.30;99.90;;;;;;10531400;28;20128;-63
2024/01/23 03:45:36;;;;;;;33.30;4.90;;;7.30;99.90;;;;;;10527914;28;20467;-62
2024/01/23 03:50:38;;;;;;;31.85;6.70;;;7.40;99.90;;;;;;10532304;28;20043;-62
2024/01/23 03:55:42;;;;;;;24.52;3.95;;;7.30;99.90;;;;;;10528927;28;20416;-63
2024/01/23 04:15:32;;;;;;;29.42;3.65;;;7.30;99.90;;;;;;10499654;27;20125;-63
2024/01/23 04:20:34;;;;;;;;;;;7.40;99.90;;;;;;10510926;28;20043;-63
2024/01/23 04:25:36;;;;;;;50.80;7.70;;;7.40;99.90;;;;;;10506453;28;19966;-63
2024/01/23 04:30:39;;;;;;;27.10;5.30;;;7.40;99.90;;;;;;10515356;28;20792;-61
2024/01/23 04:35:41;;;;;;;22.02;4.00;;;7.40;99.90;;;;;;10516035;28;20131;-62
2024/01/23 04:40:43;;;;;;;41.35;6.63;;;7.30;99.90;;;;;;10507760;28;20059;-62
2024/01/23 04:45:47;;;;;;;32.45;5.47;;;7.30;99.90;;;;;;10513339;28;20054;-63
2024/01/23 04:50:49;;;;;;;32.35;5.13;;;7.30;99.90;;;;;;10515403;28;20055;-62
2024/01/23 04:55:54;;;;;;;29.40;4.70;;;7.40;99.90;;;;;;10517880;28;20059;-62
2024/01/23 05:00:57;;;;;;;49.67;5.75;;;7.20;99.90;;;;;;10512377;28;20619;-62
2024/01/23 05:05:59;;;;;;;;;;;7.20;99.90;;;;;;10506545;28;20050;-62
2024/01/23 05:11:01;;;;;;;30.70;5.22;;;7.20;99.90;;;;;;10507131;28;21252;-63
2024/01/23 05:16:05;;;;;;;50.78;7.10;;;7.40;99.90;;;;;;10512135;28;20083;-63
2024/01/23 05:21:07;;;;;;;29.77;6.15;;;7.10;99.90;;;;;;10512447;28;20550;-62
2024/01/23 05:26:09;;;;;;;44.33;5.75;;;7.20;99.90;;;;;;10488182;28;20103;-62
2024/01/23 05:31:12;;;;;;;46.00;6.43;;;7.10;99.90;;;;;;10487863;28;20519;-62
2024/01/23 05:36:14;;;;;;;41.95;7.07;;;6.90;99.90;;;;;;10470924;28;20053;-62
2024/01/23 05:41:18;;;;;;;32.47;5.10;;;7.10;99.90;;;;;;10479498;28;20044;-61
2024/01/23 05:46:21;;;;;;;32.40;5.15;;;7.00;99.90;;;;;;10478834;28;20598;-63
2024/01/23 05:51:23;;;;;;;45.47;7.03;;;7.10;99.90;;;;;;10480373;28;20093;-64
2024/01/23 05:56:27;;;;;;;42.97;7.03;;;6.90;99.90;;;;;;10487637;28;20514;-63
2024/01/23 06:01:32;;;;;;;;;;;6.90;99.90;;;;;;10478348;28;20063;-63
2024/01/23 06:06:39;;;;;;;47.40;7.05;;;6.90;99.90;;;;;;10478669;28;19935;-62
2024/01/23 06:11:41;;;;;;;40.75;5.47;;;6.90;99.90;;;;;;10476929;28;20511;-63
2024/01/23 06:16:44;;;;;;;49.88;8.10;;;6.90;99.90;;;;;;10468295;28;20162;-62
2024/01/23 06:21:46;;;;;;;41.90;7.22;;;6.90;99.90;;;;;;10484031;28;20037;-62
2024/01/23 06:26:48;;;;;;;28.13;5.15;;;6.90;99.90;;;;;;10475787;28;20056;-62
2024/01/23 06:31:52;;;;;;;34.00;4.60;;;7.10;99.90;;;;;;10464369;28;20166;-64
2024/01/23 06:36:54;;;;;;;35.60;5.30;;;7.00;99.90;;;;;;10474888;28;20051;-62
2024/01/23 06:41:55;;;;;;;53.40;7.35;;;7.00;99.90;;;;;;10481877;28;20059;-63
2024/01/23 06:47:02;;;;;;;37.95;6.13;;;6.80;99.90;;;;;;10479018;28;20052;-64
2024/01/23 06:52:04;;;;;;;43.08;5.10;;;6.90;99.90;;;;;;10483925;28;20064;-62
2024/01/23 06:57:06;;;;;;;47.03;5.97;;;6.80;99.90;;;;;;10480946;28;20060;-63
2024/01/23 07:02:11;;;;;;;33.77;4.40;;;6.80;99.90;;;;;;10472183;28;20576;-63
2024/01/23 07:07:13;;;;;;;48.15;5.35;;;6.60;99.90;;;;;;10480682;28;20082;-64
2024/01/23 07:12:16;;;;;;;35.20;4.63;;;6.90;99.90;;;;;;10475811;28;20143;-64
2024/01/23 07:17:20;;;;;;;46.95;6.90;;;6.60;99.90;;;;;;10470316;28;20056;-62
2024/01/23 07:22:22;;;;;;;63.65;7.03;;;6.90;99.90;;;;;;10481435;28;20063;-64
2024/01/23 07:27:24;;;;;;;41.13;5.72;;;6.50;99.90;;;;;;10473509;28;20460;-64
2024/01/23 07:32:27;;;;;;;48.97;5.78;;;6.40;99.90;;;;;;10478015;28;20051;-63
2024/01/23 07:37:29;;;;;;;38.00;4.85;;;6.70;99.90;;;;;;10486965;28;20055;-62
2024/01/23 07:42:33;;;;;;;55.80;8.35;;;6.50;99.90;;;;;;10491719;28;20047;-60
2024/01/23 07:47:36;;;;;;;24.65;4.35;;;6.50;99.90;;;;;;10482423;28;20048;-61
2024/01/23 07:52:38;;;;;;;34.83;4.38;;;6.50;99.90;;;;;;10491814;28;20705;-63
2024/01/23 07:57:40;;;;;;;35.65;4.88;;;6.60;99.90;;;;;;10485777;28;20048;-63
2024/01/23 08:02:43;;;;;;;36.58;5.38;;;6.70;99.90;;;;;;10478331;28;20142;-63
2024/01/23 08:07:46;;;;;;;45.38;5.82;;;6.80;99.90;;;;;;10483071;28;20049;-63
2024/01/23 08:12:48;;;;;;;39.90;7.05;;;6.90;99.90;;;;;;10480879;28;20074;-63
2024/01/23 08:17:51;;;;;;;32.67;5.88;;;6.80;99.90;;;;;;10475389;28;20052;-63
2024/01/23 08:22:53;;;;;;;;;;;6.90;99.90;;;;;;10479398;28;20053;-64
2024/01/23 08:27:55;;;;;;;49.20;5.10;;;6.90;99.90;;;;;;10478732;28;19929;-63
2024/01/23 08:32:58;;;;;;;53.03;5.45;;;6.90;99.90;;;;;;10478060;28;20068;-62
2024/01/23 08:38:00;;;;;;;46.13;5.50;;;7.00;99.90;;;;;;10476578;28;20076;-63
2024/01/23 08:43:02;;;;;;;51.13;6.25;;;7.10;99.90;;;;;;10467630;28;20537;-63
2024/01/23 08:48:07;;;;;;;54.35;6.00;;;6.90;99.90;;;;;;10475811;28;20060;-64
2024/01/23 08:53:09;;;;;;;56.90;7.65;;;7.20;99.90;;;;;;10475464;28;20416;-64
2024/01/23 08:58:11;;;;;;;45.67;5.37;;;7.20;99.90;;;;;;10475180;28;20838;-63
2024/01/23 09:03:15;;;;;;;45.30;7.10;;;7.10;99.90;;;;;;10480831;28;20432;-63
2024/01/23 09:08:17;;;;;;;61.92;7.00;;;7.20;99.90;;;;;;10483851;28;20514;-63
2024/01/23 09:13:20;;;;;;;29.25;5.45;;;7.20;99.90;;;;;;10477376;28;20053;-63
2024/01/23 09:18:23;;;;;;;53.67;7.70;;;7.30;99.90;;;;;;10474393;28;20056;-62
2024/01/23 09:23:25;;;;;;;49.80;6.75;;;7.20;99.90;;;;;;10478379;28;20052;-62
2024/01/23 09:28:27;;;;;;;51.85;6.43;;;7.40;99.90;;;;;;10479781;28;20566;-64
2024/01/23 09:33:30;;;;;;;39.25;6.22;;;7.30;99.90;;;;;;10482756;28;20052;-63
2024/01/23 09:38:32;;;;;;;45.85;6.40;;;7.60;99.90;;;;;;10472916;28;20754;-62
2024/01/23 09:43:36;;;;;;;40.05;7.82;;;7.60;99.90;;;;;;10471385;28;20041;-63
2024/01/23 09:48:40;;;;;;;38.08;6.13;;;7.70;99.90;;;;;;10470753;28;20061;-65
2024/01/23 09:53:42;;;;;;;39.55;4.13;;;8.00;99.90;;;;;;10480741;28;20063;-63
2024/01/23 09:58:45;;;;;;;32.97;6.22;;;8.00;99.90;;;;;;10474636;28;20091;-62
2024/01/23 10:03:50;;;;;;;35.13;6.88;;;7.80;99.90;;;;;;10472623;28;20056;-63
2024/01/23 10:08:52;;;;;;;38.45;6.18;;;7.80;99.90;;;;;;10475694;28;20517;-63
2024/01/23 10:13:56;;;;;;;44.57;7.20;;;7.90;99.90;;;;;;10474802;28;20040;-63
2024/01/23 10:19:00;;;;;;;50.97;8.40;;;8.00;99.90;;;;;;10476413;28;20067;-64
2024/01/23 10:24:02;;;;;;;32.28;5.25;;;7.80;99.90;;;;;;10478537;28;21000;-62
2024/01/23 10:29:04;;;;;;;46.63;7.83;;;8.30;99.90;;;;;;10475842;28;20053;-63
2024/01/23 10:34:11;;;;;;;36.33;4.97;;;8.10;99.90;;;;;;10472256;28;20139;-62
2024/01/23 10:39:14;;;;;;;38.25;5.47;;;8.20;99.90;;;;;;10475430;28;20044;-64
2024/01/23 10:44:19;;;;;;;30.45;5.28;;;8.40;99.90;;;;;;10477156;28;20063;-64
2024/01/23 10:49:23;;;;;;;46.00;5.68;;;8.60;99.90;;;;;;10473195;28;20075;-64
2024/01/23 10:54:30;;;;;;;35.33;5.30;;;8.70;99.90;;;;;;10480572;28;20044;-62
2024/01/23 10:59:33;;;;;;;40.80;3.97;;;8.50;99.90;;;;;;10477371;28;20063;-63
2024/01/23 11:04:37;;;;;;;;;;;8.50;99.90;;;;;;10477156;28;20450;-63
2024/01/23 11:09:45;;;;;;;35.38;4.75;;;8.50;99.90;;;;;;10474291;28;20013;-63
2024/01/23 11:14:51;;;;;;;29.70;4.50;;;8.60;99.90;;;;;;10473520;28;20052;-63
2024/01/23 11:20:08;;;;;;;37.28;5.00;;;8.80;99.90;;;;;;10481943;28;20066;-63
2024/01/23 11:25:11;;;;;;;39.22;4.57;;;8.70;99.90;;;;;;10468940;28;20613;-63
2024/01/23 11:30:14;;;;;;;42.13;6.97;;;8.80;99.90;;;;;;10463778;28;20828;-64
2024/01/23 11:35:18;;;;;;;48.72;5.63;;;8.90;99.90;;;;;;10462174;28;20075;-63
2024/01/23 11:40:34;;;;;;;38.88;4.85;;;8.80;99.90;;;;;;10467677;28;20052;-63
2024/01/23 11:45:37;;;;;;;41.63;5.78;;;8.80;99.90;;;;;;10465532;28;20098;-64
2024/01/23 11:50:42;;;;;;;33.92;6.10;;;8.60;99.90;;;;;;10465581;28;20111;-63
2024/01/23 11:55:44;;;;;;;44.42;4.90;;;8.80;99.90;;;;;;10458763;28;20071;-63
2024/01/23 12:00:46;;;;;;;33.07;4.70;;;9.80;99.90;;;;;;10456701;28;20941;-63
2024/01/23 12:05:52;;;;;;;29.20;4.30;;;10.50;99.90;;;;;;10455804;28;20190;-64
2024/01/23 12:10:55;;;;;;;40.97;6.05;;;10.50;99.90;;;;;;10466455;28;20052;-62
2024/01/23 12:15:57;;;;;;;;;;;9.40;99.90;;;;;;10465577;28;20055;-63
2024/01/23 12:21:01;;;;;;;37.53;4.68;;;9.80;99.90;;;;;;10460627;28;20360;-62
2024/01/23 12:26:04;;;;;;;38.85;4.80;;;9.80;99.90;;;;;;10461408;28;20983;-64
2024/01/23 12:31:11;;;;;;;45.13;4.72;;;9.50;99.90;;;;;;10465313;28;20123;-61
2024/01/23 12:36:16;;;;;;;35.45;5.45;;;10.20;99.90;;;;;;10480402;28;20052;-61
2024/01/23 12:41:18;;;;;;;33.92;4.85;;;10.30;99.90;;;;;;10468001;28;20159;-62
2024/01/23 12:46:21;;;;;;;30.98;6.28;;;10.80;99.90;;;;;;10478156;28;20792;-61
2024/01/23 12:51:26;;;;;;;18.40;3.30;;;11.80;99.90;;;;;;10469203;28;20420;-62
2024/01/23 12:56:28;;;;;;;34.70;5.13;;;12.00;99.90;;;;;;10480355;28;20051;-63
2024/01/23 13:01:30;;;;;;;41.47;5.57;;;11.80;99.90;;;;;;10481650;28;20048;-63
2024/01/23 13:06:33;;;;;;;42.42;7.72;;;11.00;99.90;;;;;;10486212;28;22495;-63
2024/01/23 13:11:35;;;;;;;34.53;5.72;;;11.90;99.90;;;;;;10486885;28;20060;-62
2024/01/23 13:16:39;;;;;;;23.15;3.55;;;11.00;99.90;;;;;;10481933;28;20052;-62
2024/01/23 13:21:42;;;;;;;44.67;6.45;;;11.60;99.90;;;;;;10480194;28;20106;-63
2024/01/23 13:26:44;;;;;;;25.92;3.78;;;10.40;99.90;;;;;;10483184;28;20049;-62
2024/01/23 13:31:51;;;;;;;23.40;5.22;;;9.90;99.90;;;;;;10483530;28;20045;-61
2024/01/23 13:36:58;;;;;;;46.97;6.90;;;10.20;99.90;;;;;;10477499;28;20619;-63
2024/01/23 13:41:59;;;;;;;41.97;5.95;;;9.60;99.90;;;;;;10481350;28;20070;-62
2024/01/23 13:47:02;;;;;;;18.40;3.05;;;9.90;99.90;;;;;;10483545;28;20098;-63
2024/01/23 13:52:05;;;;;;;39.42;5.88;;;9.90;99.90;;;;;;10481932;28;20048;-63
2024/01/23 13:57:08;;;;;;;49.65;6.53;;;10.60;99.90;;;;;;10480332;28;20049;-62
2024/01/23 14:02:10;;;;;;;33.87;4.53;;;10.20;99.90;;;;;;10483670;28;20075;-62
2024/01/23 14:07:14;;;;;;;37.58;4.57;;;10.20;99.90;;;;;;10483809;28;20086;-62
2024/01/23 14:12:16;;;;;;;38.35;5.03;;;11.00;99.90;;;;;;10476519;28;20063;-61
2024/01/23 14:17:18;;;;;;;22.30;3.30;;;11.70;99.90;;;;;;10482084;28;20044;-63
2024/01/23 14:22:22;;;;;;;27.90;4.90;;;11.90;99.90;;;;;;10486906;28;20056;-63
2024/01/23 14:27:24;;;;;;;25.15;4.40;;;11.20;99.90;;;;;;10483067;28;20213;-64
2024/01/23 14:32:27;;;;;;;18.35;4.28;;;11.40;99.90;;;;;;10485442;28;20136;-63
2024/01/23 14:37:30;;;;;;;1.40;1.30;;;11.70;99.90;;;;;;10480694;28;20095;-63
2024/01/23 14:42:34;;;;;;;0.00;0.00;;;11.80;99.90;;;;;;10483095;28;20059;-62
2024/01/23 14:47:36;;;;;;;0.10;0.10;;;12.40;99.90;;;;;;10482110;28;20036;-63
2024/01/23 14:52:39;;;;;;;0.15;0.15;;;12.00;99.90;;;;;;10479557;28;20425;-63
2024/01/23 14:57:43;;;;;;;2.28;1.45;;;12.50;99.90;;;;;;10487185;28;20052;-63
2024/01/23 15:02:46;;;;;;;0.15;0.15;;;12.10;99.90;;;;;;10476093;28;20047;-64
2024/01/23 15:07:49;;;;;;;0.93;0.93;;;12.60;99.90;;;;;;10469210;28;20048;-63
2024/01/23 15:12:52;;;;;;;0.10;0.10;;;12.60;99.90;;;;;;10450919;28;22466;-63
2024/01/23 15:17:55;;;;;;;0.53;0.53;;;12.80;99.90;;;;;;10425313;28;20049;-61
2024/01/23 15:22:58;;;;;;;4.68;2.17;;;13.70;99.90;;;;;;10429308;28;23209;-71
2024/01/23 15:28:00;;;;;;;1.35;0.80;;;12.40;99.90;;;;;;10425633;28;20053;-61
2024/01/23 15:33:02;;;;;;;0.10;0.10;;;13.40;99.90;;;;;;10425839;28;20044;-62
2024/01/23 15:38:07;;;;;;;0.40;0.40;;;13.40;99.90;;;;;;10422098;28;20491;-66
2024/01/23 15:43:10;;;;;;;0.10;0.10;;;14.00;99.90;;;;;;10418587;28;21398;-64
2024/01/23 15:48:12;;;;;;;0.00;0.00;;;12.90;99.90;;;;;;10425647;28;20059;-63
2024/01/23 15:53:16;;;;;;;0.00;0.00;;;13.20;99.90;;;;;;10411060;28;20106;-63
2024/01/23 15:58:19;;;;;;;0.40;0.40;;;14.00;99.90;;;;;;10421848;28;20106;-64
2024/01/23 16:03:21;;;;;;;0.30;0.30;;;13.30;99.90;;;;;;10422860;28;20122;-63
2024/01/23 16:08:25;;;;;;;0.10;0.10;;;12.80;99.90;;;;;;10421431;28;20061;-61
2024/01/23 16:13:28;;;;;;;0.40;0.40;;;12.90;99.90;;;;;;10418241;28;20331;-62
2024/01/23 16:18:30;;;;;;;;;;;11.50;99.90;;;;;;10422729;28;20758;-63
2024/01/23 16:23:33;;;;;;;0.10;0.10;;;10.50;99.90;;;;;;10421880;28;19931;-63
2024/01/23 16:28:35;;;;;;;0.88;0.85;;;10.90;99.90;;;;;;10414658;28;20045;-63
2024/01/23 16:33:37;;;;;;;0.10;0.10;;;11.30;99.90;;;;;;10418281;28;20583;-62
2024/01/23 16:38:41;;;;;;;0.60;0.32;;;10.90;99.90;;;;;;10427176;28;20157;-62
2024/01/23 16:43:42;;;;;;;0.17;0.17;;;11.10;99.90;;;;;;10416685;28;20056;-62
2024/01/23 16:48:47;;;;;;;1.95;1.55;;;11.10;99.90;;;;;;10426912;28;20082;-63
2024/01/23 16:53:50;;;;;;;0.40;0.40;;;10.80;99.90;;;;;;10428537;28;20408;-62
2024/01/23 16:58:54;;;;;;;2.30;1.75;;;11.10;99.90;;;;;;10431907;28;20080;-62
2024/01/23 17:03:56;;;;;;;0.10;0.10;;;10.90;99.90;;;;;;10430266;28;20606;-62
2024/01/23 17:09:00;;;;;;;0.53;0.47;;;10.20;99.90;;;;;;10429219;28;20690;-61
2024/01/23 17:14:02;;;;;;;0.68;0.68;;;9.70;99.90;;;;;;10427515;28;20053;-61
2024/01/23 17:19:05;;;;;;;0.30;0.30;;;9.10;99.90;;;;;;10436387;28;20072;-62
2024/01/23 17:24:08;;;;;;;6.03;3.03;;;9.00;99.90;;;;;;10432919;28;20072;-63
2024/01/23 17:29:10;;;;;;;0.30;0.30;;;9.30;99.90;;;;;;10436967;28;20056;-63
2024/01/23 17:34:14;;;;;;;0.10;0.10;;;9.10;99.90;;;;;;10428968;28;20171;-62
2024/01/23 17:39:18;;;;;;;0.10;0.10;;;8.90;99.90;;;;;;10429755;28;20683;-62
2024/01/23 17:44:20;;;;;;;0.10;0.10;;;9.20;99.90;;;;;;10426822;28;20080;-63
2024/01/23 17:49:23;;;;;;;37.13;8.10;;;9.30;99.90;;;;;;10433936;28;20040;-64
2024/01/23 17:54:26;;;;;;;23.80;8.00;;;9.40;99.90;;;;;;10435884;28;20052;-63
2024/01/23 17:59:28;;;;;;;34.95;10.80;;;9.40;99.90;;;;;;10433391;28;20049;-62
2024/01/23 18:04:30;;;;;;;27.92;8.68;;;9.50;99.90;;;;;;10436323;28;20072;-62
2024/01/23 18:09:34;;;;;;;32.58;6.70;;;9.40;99.90;;;;;;10435608;28;20057;-63
2024/01/23 18:14:37;;;;;;;0.32;0.32;;;9.60;99.90;;;;;;10422147;28;20037;-62
2024/01/23 18:19:39;;;;;;;0.93;0.93;;;9.40;99.90;;;;;;10434529;28;20432;-63
2024/01/23 18:24:43;;;;;;;0.10;0.10;;;9.50;99.90;;;;;;10432172;28;20041;-61
2024/01/23 18:29:45;;;;;;;0.28;0.28;;;9.50;99.90;;;;;;10421380;28;20061;-63
2024/01/23 18:34:47;;;;;;;0.20;0.20;;;9.50;99.90;;;;;;10419010;28;20136;-68
2024/01/23 18:39:52;;;;;;;1.33;0.77;;;9.70;99.90;;;;;;10428337;28;20167;-59
2024/01/23 18:44:54;;;;;;;11.07;4.75;;;9.70;99.90;;;;;;10433929;28;20130;-61
2024/01/23 18:49:57;;;;;;;0.10;0.10;;;9.80;99.90;;;;;;10420464;28;20583;-63
2024/01/23 18:55:00;;;;;;;19.92;6.45;;;9.80;99.90;;;;;;10433648;28;20990;-64
2024/01/23 19:00:04;;;;;;;1.08;0.75;;;10.00;99.90;;;;;;10423740;28;21001;-63
2024/01/23 19:05:08;;;;;;;;;;;10.00;99.90;;;;;;10417968;28;20076;-64
2024/01/23 19:10:11;;;;;;;0.10;0.10;;;10.20;99.90;;;;;;10431401;28;20043;-62
2024/01/23 19:15:20;;;;;;;18.00;8.10;;;10.40;99.90;;;;;;10425532;28;20056;-63
2024/01/23 19:20:22;;;;;;;34.65;12.82;;;10.40;99.90;;;;;;10427551;28;20082;-65
2024/01/23 19:25:26;;;;;;;23.83;11.03;;;10.60;99.90;;;;;;10427606;28;20048;-63
2024/01/23 19:30:28;;;;;;;36.70;13.27;;;10.80;99.90;;;;;;10418264;28;20052;-64
2024/01/23 19:35:30;;;;;;;33.20;12.57;;;10.70;99.90;;;;;;10423212;28;20399;-64
2024/01/23 19:40:34;;;;;;;37.70;13.27;;;10.90;99.90;;;;;;10421695;28;20062;-64
2024/01/23 19:45:37;;;;;;;31.80;12.98;;;11.00;99.90;;;;;;10419752;28;20155;-64
2024/01/23 19:50:39;;;;;;;;;;;11.00;99.90;;;;;;10421174;28;20103;-64
2024/01/23 19:55:43;;;;;;;28.50;11.30;;;11.10;99.90;;;;;;10411420;28;19921;-63
2024/01/23 20:00:45;;;;;;;26.45;9.32;;;11.10;99.90;;;;;;10422783;28;20091;-62
2024/01/23 20:05:47;;;;;;;26.30;7.85;;;11.20;99.90;;;;;;10422693;28;20052;-62
2024/01/23 20:10:51;;;;;;;21.00;7.23;;;11.30;99.90;;;;;;10424847;28;20950;-63
2024/01/23 20:15:53;;;;;;;18.63;5.45;;;11.30;99.90;;;;;;10423047;28;20040;-62
2024/01/23 20:20:55;;;;;;;18.00;5.20;;;11.40;99.90;;;;;;10414824;28;20520;-63
2024/01/23 20:25:58;;;;;;;20.47;4.43;;;11.50;99.90;;;;;;10410121;28;20053;-64
2024/01/23 20:31:00;;;;;;;19.60;4.82;;;11.60;99.90;;;;;;10428477;28;20108;-64
2024/01/23 20:36:03;;;;;;;15.93;3.35;;;11.60;99.90;;;;;;10421056;28;20078;-64
2024/01/23 20:41:07;;;;;;;;;;;11.60;99.90;;;;;;10419446;28;20053;-62
2024/01/23 20:46:10;;;;;;;18.58;3.70;;;11.50;99.90;;;;;;10418690;28;19935;-63
2024/01/23 20:51:12;;;;;;;19.67;4.45;;;11.40;99.90;;;;;;10425149;28;20057;-65
2024/01/23 20:56:16;;;;;;;18.97;4.23;;;11.30;99.90;;;;;;10428967;28;20044;-62
2024/01/23 21:01:18;;;;;;;17.52;3.60;;;11.30;99.90;;;;;;10432877;28;21028;-62
2024/01/23 21:06:21;;;;;;;22.77;4.38;;;11.20;99.90;;;;;;10433992;28;20133;-62
2024/01/23 21:11:24;;;;;;;;;;;11.10;99.90;;;;;;10435553;28;20066;-61
2024/01/23 21:16:26;;;;;;;39.22;8.15;;;11.10;99.90;;;;;;10427026;28;19967;-61
2024/01/23 21:21:28;;;;;;;27.13;4.87;;;11.10;99.90;;;;;;10430167;28;20048;-63
2024/01/23 21:26:32;;;;;;;30.55;5.10;;;11.10;99.90;;;;;;10432189;28;20712;-63
2024/01/23 21:31:34;;;;;;;34.47;4.93;;;11.00;99.90;;;;;;10429030;28;20059;-64
2024/01/23 21:36:36;;;;;;;34.15;8.00;;;11.10;99.90;;;;;;10436714;28;20075;-63
2024/01/23 21:41:42;;;;;;;25.35;4.28;;;11.20;99.90;;;;;;10433280;28;20080;-62
2024/01/23 21:46:43;;;;;;;29.73;5.10;;;11.10;99.90;;;;;;10422417;28;20047;-63
2024/01/23 21:51:47;;;;;;;30.05;4.80;;;11.20;99.90;;;;;;10423776;28;20045;-62
2024/01/23 21:56:50;;;;;;;30.42;6.60;;;11.10;99.90;;;;;;10432619;28;20221;-61
2024/01/23 22:01:53;;;;;;;26.23;4.95;;;11.10;99.90;;;;;;10441644;28;20049;-61
2024/01/23 22:06:55;;;;;;;37.92;8.40;;;11.10;99.90;;;;;;10435929;28;20844;-61
2024/01/23 22:11:58;;;;;;;29.75;5.65;;;11.10;99.90;;;;;;10445593;28;20048;-63
2024/01/23 22:17:00;;;;;;;28.33;7.15;;;11.10;99.90;;;;;;10443583;28;20503;-63
2024/01/23 22:22:03;;;;;;;27.53;6.50;;;11.10;99.90;;;;;;10439720;28;20063;-62
2024/01/23 22:27:06;;;;;;;28.27;5.07;;;11.10;99.90;;;;;;10442508;28;20102;-62
2024/01/23 22:32:09;;;;;;;22.33;4.32;;;11.00;99.90;;;;;;10437178;28;20073;-63
2024/01/23 22:37:11;;;;;;;24.10;4.03;;;11.10;99.90;;;;;;10440570;28;20068;-63
2024/01/23 22:42:15;;;;;;;24.70;4.03;;;11.10;99.90;;;;;;10431789;28;20053;-62
2024/01/23 22:47:18;;;;;;;35.17;8.40;;;11.10;99.90;;;;;;10423756;28;20071;-63
2024/01/23 22:52:20;;;;;;;25.40;5.85;;;11.20;99.90;;;;;;10440829;28;20048;-65
2024/01/23 22:57:23;;;;;;;27.25;4.53;;;11.30;99.90;;;;;;10439464;28;20106;-62
2024/01/23 23:02:25;;;;;;;26.15;5.28;;;11.30;99.90;;;;;;10429017;28;20912;-61
2024/01/23 23:07:27;;;;;;;24.67;5.17;;;11.40;99.90;;;;;;10433734;28;20045;-62
2024/01/23 23:12:31;;;;;;;26.95;4.40;;;11.30;99.90;;;;;;10440358;28;20056;-61
2024/01/23 23:17:33;;;;;;;27.92;5.25;;;11.30;99.90;;;;;;10437221;28;20048;-63
2024/01/23 23:22:37;;;;;;;39.20;7.95;;;11.50;99.90;;;;;;10431425;28;20283;-65
2024/01/23 23:27:40;;;;;;;29.75;6.85;;;11.60;99.90;;;;;;10439142;28;20977;-63
2024/01/23 23:32:42;;;;;;;13.85;4.25;;;11.70;99.90;;;;;;10436619;28;20060;-62
2024/01/23 23:37:44;;;;;;;18.50;3.70;;;11.70;99.90;;;;;;10437644;28;20049;-63
2024/01/23 23:42:48;;;;;;;25.80;5.43;;;11.70;99.90;;;;;;10436616;28;20512;-61
2024/01/23 23:47:50;;;;;;;27.27;4.97;;;11.80;99.90;;;;;;10443255;28;20048;-65
2024/01/23 23:52:52;;;;;;;20.30;3.97;;;11.60;99.90;;;;;;10441552;28;20493;-62
2024/01/23 23:57:55;;;;;;;25.30;5.22;;;11.60;99.90;;;;;;10437003;28;20087;-62
